Terminal Aerodrome Forecast
Issued by NWS Sterling, VA

Current Version | Previous Version | Graphics & Text | Print | Product List | Glossary On
Versions: 1 2 3 4 5 6 7 8 9 10 11 12 13 14 15 16 17 18 19 20 21 22 23
000
FTUS41 KLWX 241434 AAA
TAFDCA
TAF AMD
KDCA 241434Z 2415/2512 29013G20KT P6SM SCT050 SCT250
     FM242300 30008KT P6SM FEW050 SCT250
     FM250500 31004KT P6SM FEW050 SCT250=

USA.gov is the U.S. government's official web portal to all federal, state and local government web resources and services.